Latest Coastal Weather Observations for King Island Airport

IDV60701

Issued at 1:12 am EST Thursday 3 September 2026 (issued every 10 minutes, with the page automatically refreshed every 10 minutes)

About coastal observations | Map of coastal stations | Coastal observations for VIC | Marine services | Other Formats
Station Details ID: 098017 Name: KING ISLAND AIRPORT Lat: -39.88 Lon: 143.89 Height: 35.42 m
Data from the previous 72 hours. | See also: Recent months at King Island Airport
Date/Time
EST
Wind Sea
Height
m
Swell Vis
km
Cloud Weather Temp
°C
Press
MSL
hPa
Rain since
9am
mm
Dir  Spd
kts
Gust
kts
Height
m
Period
s
Dir
03/01:00am NW 26 34 - - - - 10 Partly cloudy - 12.3 1005.2 0.6
03/12:51am NW 28 34 - - - - 7 Partly cloudy - 12.2 1005.4 0.6
03/12:30am NW 26 33 - - - - 10 Partly cloudy - 12.4 1005.6 0.6
03/12:29am NW 26 33 - - - - 10 Partly cloudy - 12.4 1005.6 0.6
03/12:28am NW 26 33 - - - - 10 Mostly clear - 12.4 1005.5 0.6
03/12:25am NW 25 33 - - - - 10 Mostly clear - 12.4 1005.6 0.6
03/12:09am NW 27 37 - - - - 4 Partly cloudy - 12.3 1005.9 0.4
03/12:08am NW 27 33 - - - - 4 Partly cloudy - 12.3 1005.9 0.4
03/12:05am NW 27 33 - - - - 6 Mostly clear - 12.5 1005.9 0.2
03/12:04am NW 27 33 - - - - 6 Mostly clear - 12.5 1006.0 0.2
03/12:00am NW 27 35 - - - - 4 Cloudy Showers 12.3 1006.0 0.2
 
Date/Time
EST
Wind Sea
Height
m
Swell Vis
km
Cloud Weather Temp
°C
Press
MSL
hPa
Rain since
9am
mm
Dir  Spd
kts
Gust
kts
Height
m
Period
s
Dir
02/11:55pm NW 26 35 - - - - 4 Mostly clear - 12.3 1006.2 0.2
02/11:54pm NW 25 35 - - - - 5 Partly cloudy - 12.3 1006.2 0.2
02/11:53pm NW 25 35 - - - - 6 Partly cloudy - 12.3 1006.2 0.2
02/11:34pm NW 25 34 - - - - 10 Partly cloudy - 12.9 1006.5 0.2
02/11:30pm NW 26 35 - - - - 10 Partly cloudy - 13.0 1006.5 0.2
02/11:15pm NW 27 38 - - - - 10 Partly cloudy - 12.8 1006.5 0.0
02/11:05pm NW 27 34 - - - - 10 Partly cloudy - 12.7 1006.7 0.0
02/11:00pm NW 27 34 - - - - 10 Partly cloudy - 12.6 1006.6 0.0
02/10:52pm NW 23 34 - - - - 10 Partly cloudy - 12.7 1006.6 0.0
02/10:30pm NW 24 32 - - - - 10 Partly cloudy - 12.7 1007.0 0.0
02/10:00pm NW 24 30 - - - - 10 Partly cloudy - 12.6 1007.5 0.0
02/09:30pm NW 23 31 - - - - 10 Partly cloudy - 12.5 1007.8 0.0
02/09:27pm NW 23 29 - - - - 10 Partly cloudy - 12.4 1007.8 0.0
02/09:07pm NW 24 34 - - - - 10 Partly cloudy - 12.6 1007.9 0.0
02/09:00pm NW 23 30 - - - - 10 Cloudy - 12.7 1008.0 0.0
02/08:30pm NW 23 28 - - - - 10 Partly cloudy - 12.5 1008.3 0.0
02/08:21pm NW 23 29 - - - - 10 Partly cloudy - 12.4 1008.4 0.0
02/08:04pm NW 24 31 - - - - 5 Partly cloudy - 12.2 1008.6 0.0
02/08:00pm NW 23 31 - - - - 10 Partly cloudy - 12.6 1008.6 0.0
02/07:55pm NW 24 31 - - - - 10 Mostly clear - 12.9 1008.5 0.0
02/07:42pm NW 23 33 - - - - 10 Partly cloudy - 12.7 1008.6 0.0
02/07:30pm WNW 24 32 - - - - 10 Mostly clear - 12.5 1008.5 0.0
02/07:00pm NW 22 29 - - - - 10 Mostly clear - 12.7 1008.4 0.0
02/06:30pm NW 23 29 - - - - 10 Partly cloudy - 12.7 1008.5 0.0
02/06:00pm NW 21 28 - - - - 10 Mostly cloudy - 12.7 1008.3 0.0
02/05:30pm NW 23 29 - - - - 10 Partly cloudy - 12.8 1008.4 0.0
02/05:00pm NW 19 25 - - - - 10 Mostly clear - 12.4 1008.6 0.0
02/04:58pm NW 19 25 - - - - 10 Mostly clear - 12.5 1008.6 0.0
02/04:39pm NW 23 33 - - - - 10 Partly cloudy - 12.8 1008.8 0.0
02/04:30pm NW 21 29 - - - - 10 Partly cloudy - 12.8 1009.0 0.0
02/04:00pm NW 21 27 - - - - 10 Mostly clear - 13.4 1009.3 0.0
02/03:53pm WNW 19 24 - - - - 10 Partly cloudy - 13.1 1009.4 0.0
02/03:39pm WNW 21 31 - - - - 10 Partly cloudy - 12.5 1009.5 0.0
02/03:30pm NW 23 29 - - - - 10 Partly cloudy - 13.5 1009.4 0.0
02/03:00pm NW 20 27 - - - - 10 Mostly cloudy - 13.6 1009.6 0.0
02/02:30pm NW 22 28 - - - - 10 Mostly clear - 12.8 1009.6 0.0
02/02:00pm NW 21 27 - - - - 10 Mostly clear - 13.5 1009.9 0.0
02/01:30pm NW 21 29 - - - - 10 Mostly clear - 13.9 1010.4 0.0
02/01:00pm NW 20 25 - - - - 10 Mostly clear - 13.5 1010.8 0.0
02/12:46pm NW 18 26 - - - - 10 Mostly clear - 13.1 1011.0 0.0
02/12:30pm WNW 23 32 - - - - 10 Mostly clear - 11.7 1011.4 0.0
02/12:23pm WNW 18 29 - - - - 10 Partly cloudy - 13.5 1011.3 0.0
02/12:00pm WNW 17 22 - - - - 10 Partly cloudy - 14.0 1011.5 0.0
02/11:30am WNW 14 19 - - - - 10 Mostly clear - 13.8 1011.6 0.0
02/11:20am WNW 17 24 - - - - 10 Mostly clear - 12.2 1011.7 0.0
02/11:00am W 19 30 - - - - 10 Mostly clear - 12.7 1011.9 0.0
02/10:50am WNW 19 29 - - - - 10 Mostly clear - 14.4 1011.8 0.0
02/10:30am WNW 18 23 - - - - 10 Partly cloudy - 13.3 1011.8 0.0
02/10:00am W 16 22 - - - - 10 Mostly clear - 13.6 1012.3 0.0
02/09:30am WNW 18 24 - - - - 10 Partly cloudy - 13.6 1012.5 0.0
02/09:00am W 17 25 - - - - 10 Cloudy - 12.5 1012.4 8.2
02/08:30am W 19 25 - - - - 10 Partly cloudy - 12.2 1012.4 8.2
02/08:00am W 18 26 - - - - 10 Mostly clear - 11.9 1012.2 8.2
02/07:30am W 15 22 - - - - 10 Cloudy - 11.9 1011.9 8.2
02/07:00am W 13 18 - - - - 10 Cloudy - 11.6 1011.8 8.2
02/06:47am W 14 20 - - - - 10 Cloudy - 11.5 1011.8 8.2
02/06:37am W 15 25 - - - - 10 Cloudy - 11.4 1011.7 8.2
02/06:30am W 17 25 - - - - 10 Partly cloudy - 11.4 1011.6 8.2
02/06:00am W 17 25 - - - - 10 Partly cloudy - 11.2 1011.4 8.2
02/05:30am WNW 17 21 - - - - 10 Mostly clear - 11.4 1011.3 8.2
02/05:00am WNW 17 24 - - - - 10 Partly cloudy - 11.3 1011.3 8.2
02/04:30am W 15 23 - - - - 10 Mostly clear - 11.6 1011.0 8.2
02/04:00am W 13 18 - - - - 10 Partly cloudy - 11.3 1011.0 8.2
02/03:30am W 13 17 - - - - 10 Partly cloudy - 11.3 1010.9 8.2
02/03:00am W 14 19 - - - - 10 Mostly clear - 10.9 1010.9 8.2
02/02:30am W 13 17 - - - - 10 Partly cloudy - 11.3 1011.2 8.2
02/02:00am W 11 15 - - - - 10 Partly cloudy - 11.3 1011.3 8.2
02/01:30am W 11 16 - - - - 10 Partly cloudy - 11.0 1011.3 8.2
02/01:00am W 10 14 - - - - 10 Partly cloudy - 10.6 1011.2 8.2
02/12:30am WSW 11 14 - - - - 10 Partly cloudy - 10.7 1011.2 8.2
02/12:00am WSW 12 17 - - - - 10 Partly cloudy - 10.7 1011.2 8.2
 
Date/Time
EST
Wind Sea
Height
m
Swell Vis
km
Cloud Weather Temp
°C
Press
MSL
hPa
Rain since
9am
mm
Dir  Spd
kts
Gust
kts
Height
m
Period
s
Dir
01/11:30pm WSW 13 18 - - - - 10 Cloudy - 11.3 1011.0 8.2
01/11:00pm WSW 14 20 - - - - 10 Mostly clear - 11.4 1010.9 8.2
01/10:30pm WSW 13 21 - - - - 10 Mostly clear - 11.7 1010.5 8.2
01/10:00pm WSW 12 18 - - - - 10 Partly cloudy - 12.0 1010.2 8.2
01/09:30pm WSW 11 15 - - - - 10 Mostly clear - 12.0 1009.9 8.2
01/09:06pm WSW 10 15 - - - - 10 Mostly clear - 12.3 1009.6 8.2
01/09:00pm WSW 12 15 - - - - 10 Cloudy Rain 12.4 1009.5 8.2
01/08:43pm WSW 13 19 - - - - 10 Partly cloudy - 12.5 1009.5 8.2
01/08:36pm W 13 19 - - - - 10 Cloudy - 12.9 1009.5 8.2
01/08:30pm WNW 18 28 - - - - 10 Partly cloudy - 12.9 1009.4 8.2
01/08:27pm WNW 22 37 - - - - 6 Partly cloudy - 12.9 1009.4 8.2
01/08:20pm NW 26 37 - - - - 5 Cloudy - 13.6 1009.0 8.2
01/08:00pm NW 25 31 - - - - 4 Cloudy - 13.7 1008.8 7.8
01/07:30pm NNW 25 33 - - - - 6 Partly cloudy - 13.6 1008.7 6.6
01/07:19pm NNW 24 32 - - - - 5 Partly cloudy - 13.6 1008.6 6.2
01/07:10pm NNW 21 29 - - - - 6 Partly cloudy - 13.6 1008.5 5.8
01/07:00pm NNW 20 25 - - - - 10 Partly cloudy - 13.6 1008.5 5.6
01/06:39pm NNW 18 24 - - - - 10 Mostly clear - 13.6 1008.4 5.4
01/06:30pm NNW 17 21 - - - - 6 Mostly clear - 13.6 1008.4 5.2
01/06:12pm NNW 21 26 - - - - 4 Mostly clear - 13.7 1008.4 3.8
01/06:00pm NNW 20 27 - - - - 5 Cloudy Showers 13.9 1008.7 2.4
01/05:38pm NNW 18 24 - - - - 10 Partly cloudy - 13.8 1008.7 1.8
01/05:34pm NNW 18 24 - - - - 9 Partly cloudy - 13.7 1008.6 1.8
01/05:30pm NNW 19 24 - - - - 7 Mostly clear - 13.7 1008.6 1.8
01/05:04pm NW 23 30 - - - - 5 Cloudy - 13.9 1008.7 1.0
01/05:00pm NW 23 30 - - - - 6 Cloudy - 14.0 1008.9 0.6
01/04:51pm NW 23 30 - - - - 8 Cloudy - 14.1 1008.9 0.4
01/04:36pm NW 25 35 - - - - 10 Mostly clear - 14.4 1009.0 0.0
01/04:30pm NW 28 35 - - - - 10 Mostly clear - 14.5 1009.1 0.0
01/04:28pm NW 28 35 - - - - 10 Mostly clear - 14.5 1009.1 0.0
01/04:13pm NW 24 35 - - - - 10 Partly cloudy - 14.9 1009.2 0.0
01/04:01pm NW 25 33 - - - - 10 Partly cloudy - 15.0 1009.3 0.0
01/04:00pm NW 24 33 - - - - 10 Partly cloudy - 14.9 1009.3 0.0
01/03:30pm NW 25 35 - - - - 10 Partly cloudy - 16.1 1009.2 0.0
01/03:20pm NW 25 35 - - - - 10 Partly cloudy - 16.4 1009.1 0.0
01/03:00pm NW 25 32 - - - - 10 Cloudy - 16.3 1009.3 0.0
01/02:30pm NNW 23 31 - - - - 10 Cloudy - 16.4 1009.1 0.0
01/02:21pm NNW 23 28 - - - - 10 Cloudy - 16.1 1009.2 0.0
01/02:11pm NNW 20 30 - - - - 10 Cloudy - 16.2 1008.9 0.0
01/02:00pm NNW 18 24 - - - - 10 Cloudy - 15.7 1008.8 0.0
01/01:30pm N 20 25 - - - - 10 Cloudy - 15.5 1009.3 0.0
01/01:00pm N 20 26 - - - - 10 Partly cloudy - 15.7 1010.2 0.0
01/12:30pm N 20 26 - - - - 10 Partly cloudy - 15.5 1011.2 0.0
01/12:00pm N 22 30 - - - - 10 Cloudy - 15.5 1011.9 0.0
01/11:30am NNW 21 28 - - - - 10 - - 15.8 1012.8 0.0
01/11:00am N 22 28 - - - - 10 - - 16.8 1013.3 0.0
01/10:30am N 23 30 - - - - 10 - - 16.5 1013.5 0.0
01/10:00am N 24 31 - - - - 10 - - 16.4 1013.9 0.0
01/09:30am N 21 30 - - - - 10 - - 15.8 1014.6 0.0
01/09:00am N 19 26 - - - - 10 - - 15.2 1015.3 0.2
01/08:30am N 14 21 - - - - 10 - - 14.3 1015.9 0.2
01/08:00am N 13 17 - - - - 10 - - 14.0 1016.2 0.2
01/07:30am N 11 14 - - - - 10 - - 12.6 1016.4 0.2
01/07:00am N 9 12 - - - - 10 - - 11.5 1016.7 0.2
01/06:30am N 8 10 - - - - 10 - - 10.3 1016.6 0.2
01/06:00am NE 5 6 - - - - 10 - - 8.4 1017.0 0.0
01/05:30am N 7 9 - - - - 10 - - 9.1 1017.6 0.0
01/05:00am NNE 4 5 - - - - 10 - - 8.3 1018.2 0.0
01/04:30am NE 5 6 - - - - 10 - - 8.5 1018.5 0.0
01/04:00am N 8 10 - - - - 10 - - 9.7 1019.0 0.0
01/03:30am N 5 7 - - - - 10 - - 9.5 1019.1 0.0
01/03:00am NNE 5 7 - - - - 8 - - 9.3 1019.7 0.0
01/02:49am NE 5 7 - - - - 6 - - 8.9 1019.9 0.0
01/02:30am NNE 1 4 - - - - 5 - - 8.9 1020.5 0.0
01/02:02am NE 5 7 - - - - 1 - - 8.5 1021.2 0.0
01/02:00am NE 5 7 - - - - 0.8 - - 8.1 1021.2 0.0
01/01:43am NE 5 6 - - - - 0.7 Mostly clear - 7.8 1021.5 0.0
01/01:30am NE 5 5 - - - - 0.5 Partly cloudy - 7.9 1021.9 0.0
01/01:00am ENE 6 7 - - - - 0.4 Cloudy - 7.7 1022.2 0.0
01/12:30am ENE 5 6 - - - - 0.5 Cloudy - 7.7 1022.6 0.0
01/12:00am NE 6 7 - - - - 0.4 Mostly cloudy - 7.5 1023.0 0.0
 
Date/Time
EST
Wind Sea
Height
m
Swell Vis
km
Cloud Weather Temp
°C
Press
MSL
hPa
Rain since
9am
mm
Dir  Spd
kts
Gust
kts
Height
m
Period
s
Dir
31/11:46pm NE 6 7 - - - - 0.5 Partly cloudy - 7.3 1023.4 0.0
31/11:41pm NE 6 7 - - - - 0.9 Partly cloudy - 7.3 1023.6 0.0
31/11:36pm NE 6 7 - - - - 4 - - 7.4 1023.7 0.0
31/11:31pm NE 6 7 - - - - 9 - - 7.4 1023.8 0.0
31/11:30pm NE 6 7 - - - - 9 - - 7.4 1023.8 0.0
31/11:00pm NE 6 7 - - - - 4 - - 6.7 1024.1 0.0
31/10:30pm ENE 5 6 - - - - 5 - - 6.0 1024.8 0.0
31/10:00pm NE 5 6 - - - - 10 - - 6.7 1025.2 0.0
31/09:30pm NE 6 7 - - - - 10 - - 6.4 1025.4 0.0
31/09:00pm NE 5 6 - - - - 10 - - 6.1 1025.6 0.0
31/08:30pm CALM 0 0 - - - - 10 - - 7.1 1025.9 0.0
31/08:00pm CALM 0 0 - - - - 10 - - 7.4 1026.3 0.0
31/07:30pm CALM 0 2 - - - - 10 - - 8.0 1026.6 0.0
31/07:00pm NNW 3 4 - - - - 10 Mostly clear - 8.7 1026.7 0.0
31/06:52pm NW 4 5 - - - - 10 Partly cloudy - 9.5 1026.9 0.0
31/06:30pm NNW 5 6 - - - - 10 Cloudy - 9.9 1027.0 0.0
31/06:00pm NW 5 7 - - - - 10 Cloudy - 10.5 1027.0 0.0
31/05:30pm NW 6 9 - - - - 10 Cloudy - 11.1 1027.1 0.0
31/05:00pm NW 6 8 - - - - 10 Cloudy - 11.2 1027.3 0.0
31/04:30pm NW 7 10 - - - - 10 Cloudy - 11.7 1027.6 0.0
31/04:20pm WNW 7 10 - - - - 10 Cloudy - 11.6 1027.7 0.0
31/04:00pm NW 9 12 - - - - 10 Cloudy - 12.1 1027.9 0.0
31/03:30pm WNW 11 14 - - - - 10 Cloudy - 11.7 1028.3 0.0
31/03:00pm NW 11 16 - - - - 10 Mostly cloudy - 12.1 1028.3 0.0
31/02:30pm WNW 11 15 - - - - 10 Cloudy - 12.7 1028.6 0.0
31/02:00pm WNW 11 15 - - - - 10 Cloudy - 12.2 1028.9 0.0
31/01:30pm WNW 12 19 - - - - 10 Cloudy - 13.0 1029.2 0.0
31/01:00pm WNW 12 16 - - - - 10 Cloudy - 11.9 1029.9 0.0
31/12:52pm WNW 12 16 - - - - 10 Cloudy - 12.5 1030.1 0.0
31/12:30pm WNW 11 15 - - - - 10 Cloudy - 11.6 1030.5 0.0
31/12:00pm WNW 9 14 - - - - 10 Cloudy - 11.7 1030.9 0.0
31/11:30am WNW 11 16 - - - - 10 Cloudy - 11.7 1031.2 0.0
31/11:00am WNW 10 14 - - - - 10 Cloudy - 11.3 1031.5 0.0
31/10:30am WNW 11 14 - - - - 10 Cloudy - 11.5 1031.5 0.0
31/10:00am W 9 16 - - - - 10 Cloudy - 11.5 1031.6 0.0
31/09:30am W 8 11 - - - - 10 Cloudy - 11.4 1031.7 0.0
31/09:00am WNW 11 14 - - - - 10 Cloudy - 11.1 1031.7 0.0
31/08:30am W 8 11 - - - - 10 Cloudy - 10.9 1031.7 0.0
31/08:00am WNW 9 13 - - - - 10 Cloudy - 10.7 1031.6 0.0
31/07:30am W 8 10 - - - - 10 Cloudy - 10.7 1031.4 0.0
31/07:00am W 7 10 - - - - 10 Cloudy - 10.4 1031.4 0.0
31/06:30am W 9 13 - - - - 10 Cloudy - 10.7 1031.2 0.0
31/06:00am W 8 15 - - - - 10 Cloudy - 10.7 1031.3 0.0
31/05:30am W 10 14 - - - - 10 Cloudy - 10.4 1031.3 0.0
31/05:00am W 9 14 - - - - 10 Cloudy - 10.7 1031.0 0.0
31/04:30am W 10 16 - - - - 10 Cloudy - 10.7 1031.0 0.0
31/04:00am W 10 14 - - - - 10 Cloudy - 10.6 1030.9 0.0
31/03:30am W 9 15 - - - - 10 Cloudy - 10.8 1031.0 0.0
31/03:00am WSW 8 14 - - - - 10 Cloudy - 10.7 1031.2 0.0
31/02:30am W 8 12 - - - - 10 Cloudy - 10.8 1031.6 0.0
31/02:00am W 9 12 - - - - 10 Cloudy - 11.0 1031.9 0.0
31/01:30am W 9 13 - - - - 10 Cloudy - 11.0 1031.8 0.0

Other formats

Comma delimited format used in spreadsheet applications
http://www.bom.gov.au/fwo/IDV60701/IDV60701.94850.axf

JavaScript Object Notation format (JSON) in row-major order
http://www.bom.gov.au/fwo/IDV60701/IDV60701.94850.json

Data quality

Most of these data are generated automatically and are frequently updated. Quality checks on data are not normally performed. It is possible for incorrect values to appear. Refer to information at About Latest Weather Observations and please check the disclaimer before using these data.